Time;durP1;ratioP1;P1;durP2;ratioP2;P2;SDS_P1;SDS_P2;PMS_P1;PMS_P2;Temp;Humidity;BMP_temperature;BMP_pressure;BME280_temperature;BME280_humidity;BME280_pressure;Samples;Min_cycle;Max_cycle;Signal;HPM_P1;HPM_P2
2022/07/20 00:00:40;;;;;;;5.13;4.13;;;25.80;91.50;;;;;;5097479;28;20927;-72
2022/07/20 00:03:08;;;;;;;5.90;5.40;;;25.80;91.30;;;;;;5106502;27;20453;-72
2022/07/20 00:05:35;;;;;;;7.40;4.20;;;25.70;91.40;;;;;;5106496;27;20496;-72
2022/07/20 00:08:03;;;;;;;8.33;4.30;;;25.60;91.40;;;;;;5103935;27;20449;-72
2022/07/20 00:13:17;;;;;;;5.90;5.03;;;25.70;90.60;;;;;;5096336;27;20557;-72
2022/07/20 00:15:45;;;;;;;5.27;4.77;;;25.60;90.60;;;;;;5098408;27;20720;-72
2022/07/20 00:18:12;;;;;;;6.30;5.00;;;25.60;91.30;;;;;;5102335;27;20445;-72
2022/07/20 00:20:39;;;;;;;7.03;4.93;;;25.60;91.10;;;;;;5102204;27;20486;-72
2022/07/20 00:23:06;;;;;;;6.80;4.20;;;25.60;90.80;;;;;;5106131;27;20453;-72
2022/07/20 00:25:34;;;;;;;7.30;4.20;;;25.50;90.90;;;;;;5103279;27;20910;-72
2022/07/20 00:28:01;;;;;;;5.97;4.80;;;25.60;91.10;;;;;;5106294;27;20857;-72
2022/07/20 00:30:28;;;;;;;5.27;4.80;;;25.40;89.70;;;;;;5099938;27;20487;-72
2022/07/20 00:32:55;;;;;;;5.10;4.53;;;25.40;91.20;;;;;;5101486;27;20472;-72
2022/07/20 00:35:22;;;;;;;8.23;4.50;;;25.30;91.40;;;;;;5102090;27;20467;-72
2022/07/20 00:37:49;;;;;;;5.10;4.60;;;25.40;91.40;;;;;;5102992;27;20467;-72
2022/07/20 00:40:16;;;;;;;6.10;4.50;;;25.20;92.10;;;;;;5103718;27;20473;-72
2022/07/20 00:42:44;;;;;;;5.07;4.40;;;25.20;91.60;;;;;;5091469;27;20449;-72
2022/07/20 00:45:11;;;;;;;5.70;4.97;;;25.20;91.40;;;;;;5099620;27;20453;-72
2022/07/20 00:47:39;;;;;;;6.77;4.17;;;25.20;91.50;;;;;;5105488;27;20462;-72
2022/07/20 00:50:08;;;;;;;5.30;4.80;;;25.30;92.10;;;;;;5107820;27;20481;-72
2022/07/20 00:52:34;;;;;;;12.03;4.87;;;25.10;91.50;;;;;;5108024;27;20558;-72
2022/07/20 00:55:01;;;;;;;4.80;4.30;;;25.00;91.60;;;;;;5101977;27;20623;-72
2022/07/20 00:57:29;;;;;;;11.07;4.83;;;25.10;91.70;;;;;;5098680;27;20563;-72
2022/07/20 00:59:57;;;;;;;9.50;4.40;;;25.10;91.90;;;;;;5098486;27;20480;-72
2022/07/20 01:02:24;;;;;;;4.90;4.40;;;25.10;91.80;;;;;;5106758;27;20453;-72
2022/07/20 01:04:51;;;;;;;6.07;4.50;;;25.10;91.70;;;;;;5105153;27;20479;-72
2022/07/20 01:07:18;;;;;;;5.00;4.43;;;25.00;91.80;;;;;;5100855;27;20550;-72
2022/07/20 01:09:46;;;;;;;5.63;4.20;;;24.90;92.40;;;;;;5098843;27;20481;-72
2022/07/20 01:12:13;;;;;;;4.60;4.13;;;24.80;92.10;;;;;;5105405;27;20461;-72
2022/07/20 01:14:39;;;;;;;5.97;4.43;;;24.80;92.10;;;;;;5107792;27;20495;-71
2022/07/20 01:17:08;;;;;;;7.60;5.20;;;24.80;92.10;;;;;;5118138;27;22950;-72
2022/07/20 01:19:35;;;;;;;6.63;4.00;;;24.80;92.20;;;;;;5113821;27;20980;-72
2022/07/20 01:22:03;;;;;;;11.50;5.97;;;24.70;92.60;;;;;;5108464;27;20453;-71
2022/07/20 01:24:30;;;;;;;5.57;5.07;;;24.70;92.90;;;;;;5106629;27;20450;-72
2022/07/20 01:26:57;;;;;;;4.70;4.10;;;24.80;92.70;;;;;;5103055;27;20446;-73
2022/07/20 01:29:24;;;;;;;9.13;5.10;;;24.80;92.30;;;;;;5101820;27;20662;-71
2022/07/20 01:31:51;;;;;;;7.70;4.20;;;24.80;92.10;;;;;;5103733;27;20480;-72
2022/07/20 01:34:19;;;;;;;6.33;4.27;;;24.80;92.00;;;;;;5105616;27;20503;-72
2022/07/20 01:36:45;;;;;;;9.43;4.70;;;24.70;92.40;;;;;;5100381;27;20538;-72
2022/07/20 01:39:14;;;;;;;4.43;4.03;;;24.70;92.30;;;;;;5102186;27;20459;-72
2022/07/20 01:41:41;;;;;;;5.83;3.87;;;24.60;92.30;;;;;;5101825;27;20491;-72
2022/07/20 01:44:07;;;;;;;4.87;4.40;;;24.50;92.30;;;;;;5102384;27;20476;-72
2022/07/20 01:46:34;;;;;;;5.07;4.03;;;24.60;92.40;;;;;;5103638;27;20465;-71
2022/07/20 01:49:01;;;;;;;4.77;4.27;;;24.70;92.40;;;;;;5106435;27;20477;-72
2022/07/20 01:51:28;;;;;;;10.30;3.87;;;24.40;92.60;;;;;;5105719;27;20478;-72
2022/07/20 01:53:55;;;;;;;16.93;5.03;;;24.40;92.70;;;;;;5103122;27;20477;-72
2022/07/20 01:56:23;;;;;;;5.50;5.00;;;24.40;93.00;;;;;;5103329;27;20829;-72
2022/07/20 01:58:50;;;;;;;4.33;3.73;;;24.40;93.20;;;;;;5095646;27;20457;-72
2022/07/20 02:01:17;;;;;;;9.43;4.83;;;24.40;93.10;;;;;;5105022;27;20476;-73
2022/07/20 02:03:43;;;;;;;4.17;3.77;;;24.40;92.60;;;;;;5108922;27;20445;-72
2022/07/20 02:06:10;;;;;;;7.13;4.13;;;24.30;91.50;;;;;;5101383;27;20559;-72
2022/07/20 02:08:38;;;;;;;5.30;4.27;;;24.30;90.60;;;;;;5102650;27;20471;-72
2022/07/20 02:11:05;;;;;;;5.17;4.13;;;24.20;89.80;;;;;;5105705;27;20500;-71
2022/07/20 02:13:35;;;;;;;5.47;4.77;;;24.10;90.00;;;;;;5104344;27;20568;-71
2022/07/20 02:16:16;;;;;;;4.73;3.50;;;24.10;89.60;;;;;;5101271;27;20547;-72
2022/07/20 02:18:45;;;;;;;5.73;3.63;;;24.10;90.30;;;;;;5094332;27;20504;-72
2022/07/20 02:21:13;;;;;;;5.07;4.40;;;24.20;89.50;;;;;;5106896;27;20560;-72
2022/07/20 02:23:40;;;;;;;6.33;4.63;;;24.10;89.60;;;;;;5105713;27;20453;-72
2022/07/20 02:26:08;;;;;;;4.73;4.00;;;24.10;89.70;;;;;;5098339;27;20462;-72
2022/07/20 02:28:36;;;;;;;5.50;4.20;;;24.10;89.70;;;;;;5104054;27;20946;-71
2022/07/20 02:31:04;;;;;;;4.73;4.10;;;24.20;90.20;;;;;;5092162;27;21123;-71
2022/07/20 02:33:31;;;;;;;10.10;6.10;;;24.10;89.70;;;;;;5103498;27;20478;-72
2022/07/20 02:35:58;;;;;;;6.53;5.00;;;23.90;90.00;;;;;;5107914;27;20457;-71
2022/07/20 02:38:25;;;;;;;5.00;4.57;;;23.80;90.40;;;;;;5103629;27;20942;-72
2022/07/20 02:40:52;;;;;;;8.10;4.40;;;23.70;90.50;;;;;;5103524;27;20469;-72
2022/07/20 02:43:19;;;;;;;6.70;4.73;;;23.80;90.70;;;;;;5096792;27;20467;-72
2022/07/20 02:45:47;;;;;;;6.00;4.20;;;23.80;90.60;;;;;;5090213;27;20454;-72
2022/07/20 02:48:15;;;;;;;5.87;5.27;;;23.80;90.80;;;;;;5110293;27;20449;-71
2022/07/20 02:50:42;;;;;;;4.60;4.20;;;23.90;90.70;;;;;;5100021;27;20491;-71
2022/07/20 02:53:10;;;;;;;4.17;3.40;;;23.90;90.70;;;;;;5087419;27;20482;-71
2022/07/20 02:55:38;;;;;;;5.27;4.30;;;23.80;91.00;;;;;;5093300;27;20563;-73
2022/07/20 02:58:05;;;;;;;4.90;3.50;;;23.80;90.80;;;;;;5099493;27;20589;-72
2022/07/20 03:00:33;;;;;;;9.30;4.00;;;23.70;91.30;;;;;;5108084;27;20560;-72
2022/07/20 03:03:01;;;;;;;4.10;3.70;;;23.60;91.10;;;;;;5105435;27;20456;-72
2022/07/20 03:05:28;;;;;;;8.03;3.90;;;23.50;91.30;;;;;;5109096;27;20967;-72
2022/07/20 03:07:55;;;;;;;5.60;3.70;;;23.40;91.30;;;;;;5104041;27;20572;-72
2022/07/20 03:10:23;;;;;;;10.50;4.27;;;23.40;91.30;;;;;;5100217;27;20481;-73
2022/07/20 03:12:50;;;;;;;5.57;3.90;;;23.40;91.40;;;;;;5106765;27;20467;-72
2022/07/20 03:15:17;;;;;;;6.10;3.60;;;23.40;92.20;;;;;;5105088;27;20481;-72
2022/07/20 03:17:45;;;;;;;5.67;3.93;;;23.40;92.50;;;;;;5101419;27;20488;-72
2022/07/20 03:20:15;;;;;;;5.30;3.77;;;23.30;92.60;;;;;;5112059;27;20483;-73
2022/07/20 03:22:42;;;;;;;5.13;3.90;;;23.40;92.80;;;;;;5105746;27;20433;-72
2022/07/20 03:25:10;;;;;;;6.50;4.57;;;23.40;91.70;;;;;;5095884;27;20976;-72
2022/07/20 03:27:37;;;;;;;6.00;3.97;;;23.40;92.10;;;;;;5106944;27;20467;-72
2022/07/20 03:30:05;;;;;;;4.87;4.30;;;23.30;92.80;;;;;;5101337;28;20461;-72
2022/07/20 03:32:32;;;;;;;6.80;4.10;;;23.20;93.40;;;;;;5102146;28;20719;-72
2022/07/20 03:34:59;;;;;;;8.73;4.40;;;23.00;93.60;;;;;;5105863;28;23785;-72
2022/07/20 03:37:28;;;;;;;5.47;4.10;;;22.90;94.60;;;;;;5104127;28;20457;-72
2022/07/20 03:39:55;;;;;;;4.00;3.60;;;22.80;94.70;;;;;;5101149;28;20485;-72
2022/07/20 03:42:22;;;;;;;7.23;4.67;;;22.80;95.20;;;;;;5104706;28;20463;-71
2022/07/20 03:44:48;;;;;;;6.63;4.47;;;22.80;95.30;;;;;;5103137;28;20813;-72
2022/07/20 03:47:15;;;;;;;10.77;4.43;;;22.80;95.30;;;;;;5103030;28;20437;-72
2022/07/20 03:49:42;;;;;;;5.50;4.40;;;22.70;95.60;;;;;;5106396;28;20457;-72
2022/07/20 03:52:09;;;;;;;11.37;6.70;;;22.90;95.40;;;;;;5134414;22;20499;-72
2022/07/20 03:54:37;;;;;;;22.53;5.97;;;22.90;95.00;;;;;;5119103;27;20476;-73
2022/07/20 03:57:04;;;;;;;15.03;4.13;;;22.90;95.10;;;;;;5114580;28;20456;-74
2022/07/20 03:59:32;;;;;;;5.87;4.17;;;22.90;95.10;;;;;;5118834;28;20449;-73
2022/07/20 04:01:59;;;;;;;7.33;4.43;;;22.80;95.00;;;;;;5101306;28;20480;-73
2022/07/20 04:04:27;;;;;;;5.30;4.80;;;22.70;95.40;;;;;;5096559;28;20453;-72
2022/07/20 04:06:54;;;;;;;6.10;5.23;;;22.60;95.60;;;;;;5098195;28;20469;-73
2022/07/20 04:12:04;;;;;;;6.30;3.83;;;22.50;96.50;;;;;;5096741;28;20473;-72
2022/07/20 04:14:31;;;;;;;11.13;5.00;;;22.50;96.50;;;;;;5097093;28;20992;-72
2022/07/20 04:16:57;;;;;;;5.73;4.70;;;22.50;96.80;;;;;;5100142;28;20457;-72
2022/07/20 04:19:24;;;;;;;7.47;4.90;;;22.40;97.10;;;;;;5097527;28;20846;-72
2022/07/20 04:21:52;;;;;;;14.37;5.83;;;22.40;97.40;;;;;;5098001;28;20488;-73
2022/07/20 04:24:19;;;;;;;5.70;4.70;;;22.50;97.40;;;;;;5099887;28;20483;-73
2022/07/20 04:26:46;;;;;;;7.37;4.80;;;22.60;97.60;;;;;;5089378;28;20446;-72
2022/07/20 04:29:14;;;;;;;8.53;4.20;;;22.50;98.70;;;;;;5094208;28;20454;-71
2022/07/20 04:31:41;;;;;;;8.33;6.13;;;22.50;99.90;;;;;;5094910;28;20648;-72
2022/07/20 04:34:08;;;;;;;12.83;4.20;;;22.30;98.90;;;;;;5101988;28;20890;-72
2022/07/20 04:36:34;;;;;;;12.50;4.80;;;22.40;97.60;;;;;;5095498;28;20476;-72
2022/07/20 04:39:01;;;;;;;8.00;3.43;;;22.40;97.60;;;;;;5102677;28;20456;-72
2022/07/20 04:41:28;;;;;;;7.30;4.40;;;22.60;97.50;;;;;;5098912;28;20457;-73
2022/07/20 04:43:55;;;;;;;7.70;4.63;;;22.70;97.70;;;;;;5100622;28;20589;-72
2022/07/20 04:46:23;;;;;;;8.20;4.63;;;22.90;97.90;;;;;;5097412;28;20468;-72
2022/07/20 04:48:50;;;;;;;4.63;3.30;;;23.00;97.40;;;;;;5099086;28;20949;-72
2022/07/20 04:51:17;;;;;;;4.20;3.60;;;23.10;97.00;;;;;;5100096;28;20481;-72
2022/07/20 04:53:43;;;;;;;8.10;5.80;;;23.10;97.40;;;;;;5106759;28;20449;-72
2022/07/20 04:56:10;;;;;;;5.40;4.90;;;23.10;97.80;;;;;;5104058;27;20493;-73
2022/07/20 04:58:37;;;;;;;4.53;4.13;;;23.20;97.70;;;;;;5104533;27;20445;-73
2022/07/20 05:01:04;;;;;;;8.53;4.83;;;23.40;97.30;;;;;;5103760;27;20829;-72
2022/07/20 05:03:32;;;;;;;8.77;4.80;;;23.50;97.70;;;;;;5095466;27;20449;-72
2022/07/20 05:05:59;;;;;;;7.73;5.23;;;23.70;97.60;;;;;;5101692;27;20902;-72
2022/07/20 05:08:26;;;;;;;9.73;4.93;;;23.70;98.30;;;;;;5101422;28;20450;-73
2022/07/20 05:10:52;;;;;;;7.50;5.00;;;23.90;98.60;;;;;;5106854;27;20466;-73
2022/07/20 05:13:19;;;;;;;6.80;4.40;;;24.10;98.70;;;;;;5100844;27;20998;-73
2022/07/20 05:15:46;;;;;;;16.70;5.00;;;24.40;99.20;;;;;;5104437;27;20650;-73
2022/07/20 05:18:13;;;;;;;10.47;5.27;;;24.80;98.60;;;;;;5100151;28;20461;-73
2022/07/20 05:20:41;;;;;;;11.03;5.40;;;25.10;98.20;;;;;;5099819;27;20464;-73
2022/07/20 05:23:08;;;;;;;11.83;4.50;;;25.80;97.10;;;;;;5101126;28;20441;-73
2022/07/20 05:25:38;;;;;;;8.77;5.20;;;25.80;96.00;;;;;;5107398;27;20439;-73
2022/07/20 05:28:05;;;;;;;12.10;5.90;;;25.90;96.60;;;;;;5105491;27;20430;-73
2022/07/20 05:30:33;;;;;;;6.60;4.77;;;26.40;96.10;;;;;;5099247;27;20465;-73
2022/07/20 05:33:00;;;;;;;5.57;4.10;;;26.80;95.20;;;;;;5103024;28;20454;-73
2022/07/20 05:35:27;;;;;;;6.23;4.07;;;27.00;94.80;;;;;;5104184;27;21287;-73
2022/07/20 05:37:55;;;;;;;11.70;5.80;;;27.20;94.60;;;;;;5104072;27;20957;-73
2022/07/20 05:40:22;;;;;;;13.40;5.27;;;27.20;94.60;;;;;;5099969;27;20454;-73
2022/07/20 05:42:48;;;;;;;16.10;5.07;;;27.50;94.10;;;;;;5104350;27;20877;-73
2022/07/20 05:45:15;;;;;;;18.47;5.20;;;27.70;93.90;;;;;;5097253;28;20554;-73
2022/07/20 05:47:42;;;;;;;7.00;4.90;;;28.00;93.10;;;;;;5102109;28;20617;-73
2022/07/20 05:50:10;;;;;;;6.83;4.90;;;28.30;92.70;;;;;;5103599;28;20523;-73
2022/07/20 05:52:40;;;;;;;7.40;4.70;;;28.40;93.30;;;;;;5108150;27;20532;-73
2022/07/20 05:55:08;;;;;;;9.63;5.20;;;28.50;93.40;;;;;;5097493;28;20560;-73
2022/07/20 05:57:35;;;;;;;9.80;5.30;;;28.90;93.10;;;;;;5096978;27;20469;-73
2022/07/20 06:00:03;;;;;;;13.57;5.70;;;29.10;91.50;;;;;;5097789;27;20460;-73
2022/07/20 06:02:30;;;;;;;15.40;5.97;;;29.50;90.00;;;;;;5104632;27;20448;-73
2022/07/20 06:04:57;;;;;;;20.73;5.20;;;29.20;90.00;;;;;;5101194;27;20467;-72
2022/07/20 06:07:23;;;;;;;21.40;5.67;;;28.80;92.00;;;;;;5102629;27;20463;-73
2022/07/20 06:09:50;;;;;;;12.47;6.47;;;29.10;90.80;;;;;;5108383;27;20438;-73
2022/07/20 06:12:18;;;;;;;33.20;6.90;;;29.90;89.60;;;;;;5105364;27;20476;-72
2022/07/20 06:14:45;;;;;;;12.10;5.57;;;30.40;88.40;;;;;;5105674;27;20487;-72
2022/07/20 06:17:12;;;;;;;14.73;5.80;;;30.80;82.60;;;;;;5097015;27;20447;-72
2022/07/20 06:19:39;;;;;;;11.33;4.97;;;31.00;79.40;;;;;;5100632;27;20522;-72
2022/07/20 06:22:06;;;;;;;8.07;4.40;;;31.00;78.10;;;;;;5102639;27;20474;-72
2022/07/20 06:24:33;;;;;;;4.83;4.40;;;31.00;73.70;;;;;;5100940;27;20451;-72
2022/07/20 06:27:00;;;;;;;11.43;4.60;;;30.80;70.90;;;;;;5102468;28;20537;-73
2022/07/20 06:29:29;;;;;;;9.20;4.50;;;30.70;70.10;;;;;;5096315;27;20821;-73
2022/07/20 06:31:56;;;;;;;6.93;4.80;;;30.90;68.80;;;;;;5099504;28;20795;-71
2022/07/20 06:34:32;;;;;;;5.10;4.60;;;31.20;67.30;;;;;;5104259;27;20925;-72
2022/07/20 06:37:29;;;;;;;;;;;;;;;;;;;;;
2022/07/20 06:40:06;;;;;;;10.53;4.90;;;31.70;65.10;;;;;;5094935;28;20454;-72
2022/07/20 06:42:51;;;;;;;10.50;5.40;;;31.90;63.40;;;;;;5102481;27;20513;-73
2022/07/20 06:45:24;;;;;;;12.40;6.10;;;31.70;64.10;;;;;;5102492;27;21027;-72
2022/07/20 06:47:50;;;;;;;15.70;7.83;;;31.70;66.00;;;;;;5100698;27;20929;-72
2022/07/20 06:50:17;;;;;;;7.77;6.40;;;31.60;67.60;;;;;;5100326;27;20441;-72
2022/07/20 06:52:44;;;;;;;19.90;7.20;;;31.70;67.80;;;;;;5104387;27;20451;-72
2022/07/20 06:55:11;;;;;;;13.50;8.23;;;31.50;69.60;;;;;;5106636;27;21088;-72
2022/07/20 06:57:38;;;;;;;15.53;7.67;;;31.50;70.30;;;;;;5101883;27;20564;-73
2022/07/20 07:00:06;;;;;;;15.13;8.80;;;31.60;70.50;;;;;;5098821;27;20452;-73
2022/07/20 07:02:35;;;;;;;16.20;10.13;;;31.70;71.40;;;;;;5099152;27;20446;-73
2022/07/20 07:05:01;;;;;;;9.53;8.63;;;31.40;72.20;;;;;;5101419;27;20436;-73
2022/07/20 07:07:29;;;;;;;15.03;8.07;;;31.40;72.00;;;;;;5097450;27;20447;-73
2022/07/20 07:09:56;;;;;;;9.33;8.53;;;31.40;73.10;;;;;;5091734;28;20537;-71
2022/07/20 07:12:22;;;;;;;18.93;10.20;;;31.70;72.50;;;;;;5101639;27;20475;-71
2022/07/20 07:14:49;;;;;;;16.37;10.57;;;31.90;72.50;;;;;;5099049;27;20480;-71
2022/07/20 07:17:17;;;;;;;12.73;9.83;;;32.20;72.20;;;;;;5100772;28;20830;-70
2022/07/20 07:19:45;;;;;;;12.70;10.97;;;32.50;72.70;;;;;;5099566;28;20457;-70
2022/07/20 07:22:12;;;;;;;15.77;9.87;;;32.30;72.90;;;;;;5101387;28;20479;-70
2022/07/20 07:24:38;;;;;;;12.30;9.70;;;32.20;73.40;;;;;;5101710;27;20444;-70
2022/07/20 07:27:06;;;;;;;17.93;12.60;;;32.50;72.80;;;;;;5101203;28;20468;-71
2022/07/20 07:29:33;;;;;;;16.80;11.27;;;32.70;74.00;;;;;;5102030;28;20912;-71
2022/07/20 07:32:00;;;;;;;16.37;11.47;;;33.10;73.20;;;;;;5101532;28;20483;-71
2022/07/20 07:34:27;;;;;;;15.30;11.60;;;33.10;72.80;;;;;;5098098;27;20953;-71
2022/07/20 07:36:56;;;;;;;20.50;11.67;;;33.10;73.00;;;;;;5101394;28;20453;-71
2022/07/20 07:39:23;;;;;;;20.23;12.57;;;32.80;73.70;;;;;;5095572;28;21165;-70
2022/07/20 07:41:50;;;;;;;19.67;13.20;;;32.60;75.20;;;;;;5101750;28;20509;-71
2022/07/20 07:44:16;;;;;;;16.33;10.40;;;32.90;74.70;;;;;;5093127;28;20794;-69
2022/07/20 07:46:43;;;;;;;30.63;13.40;;;33.20;73.70;;;;;;5099417;28;20445;-70
2022/07/20 07:49:10;;;;;;;14.53;10.97;;;32.90;74.60;;;;;;5099255;28;20436;-72
2022/07/20 07:51:37;;;;;;;17.57;13.27;;;32.80;74.50;;;;;;5096103;28;20858;-70
2022/07/20 07:54:06;;;;;;;17.67;15.47;;;32.80;74.90;;;;;;5097842;28;21003;-71
2022/07/20 07:56:33;;;;;;;18.60;12.70;;;33.00;75.10;;;;;;5103447;28;20710;-70
2022/07/20 07:59:00;;;;;;;16.87;13.60;;;32.90;75.00;;;;;;5101879;28;20452;-71
2022/07/20 08:01:26;;;;;;;22.40;13.67;;;33.10;73.70;;;;;;5097080;28;21030;-71
2022/07/20 08:03:53;;;;;;;18.17;13.30;;;33.10;73.80;;;;;;5101880;27;20544;-70
2022/07/20 08:06:20;;;;;;;20.57;12.33;;;33.30;74.20;;;;;;5101472;28;20441;-71
2022/07/20 08:08:47;;;;;;;21.80;12.67;;;33.10;75.00;;;;;;5101671;28;20837;-71
2022/07/20 08:11:15;;;;;;;22.53;14.03;;;33.10;75.10;;;;;;5102836;28;20481;-69
2022/07/20 08:13:42;;;;;;;16.70;13.17;;;33.20;74.80;;;;;;5100003;28;20964;-70
2022/07/20 08:16:09;;;;;;;14.43;12.60;;;33.30;74.90;;;;;;5095535;28;20484;-71
2022/07/20 08:18:36;;;;;;;19.50;14.67;;;33.00;75.50;;;;;;5097224;28;21016;-70
2022/07/20 08:21:03;;;;;;;22.30;14.43;;;32.90;76.30;;;;;;5105844;28;20467;-70
2022/07/20 08:23:30;;;;;;;15.93;14.03;;;33.20;76.30;;;;;;5107252;27;20452;-70
2022/07/20 08:25:56;;;;;;;19.63;16.77;;;33.70;76.00;;;;;;5101153;28;20940;-70
2022/07/20 08:28:25;;;;;;;23.20;13.97;;;34.00;75.60;;;;;;5100813;28;20815;-70
2022/07/20 08:30:53;;;;;;;14.50;12.87;;;33.50;76.50;;;;;;5100163;27;20461;-70
2022/07/20 08:33:20;;;;;;;15.83;12.63;;;33.70;76.00;;;;;;5106013;27;20437;-70
2022/07/20 08:35:47;;;;;;;17.47;12.70;;;33.60;75.40;;;;;;5102314;27;20480;-71
2022/07/20 08:38:14;;;;;;;19.07;14.00;;;33.80;73.70;;;;;;5103301;27;20517;-71
2022/07/20 08:40:41;;;;;;;18.63;13.73;;;34.40;70.50;;;;;;5104131;27;20465;-71
2022/07/20 08:43:08;;;;;;;18.03;13.60;;;34.70;68.10;;;;;;5107142;27;20453;-71
2022/07/20 08:45:36;;;;;;;15.90;14.20;;;34.70;66.00;;;;;;5101786;27;20545;-70
2022/07/20 08:48:07;;;;;;;17.87;15.77;;;34.30;65.80;;;;;;5109118;27;20569;-71
2022/07/20 08:50:34;;;;;;;17.77;14.17;;;34.00;67.60;;;;;;5102457;27;20819;-71
2022/07/20 08:53:01;;;;;;;18.03;14.10;;;34.10;66.50;;;;;;5100871;27;20484;-70
2022/07/20 08:55:31;;;;;;;17.37;14.07;;;34.70;66.30;;;;;;5094602;27;20483;-71
2022/07/20 08:57:58;;;;;;;17.33;14.53;;;35.30;65.20;;;;;;5098832;28;20809;-71
2022/07/20 09:00:25;;;;;;;28.87;17.07;;;35.10;64.00;;;;;;5101304;27;20476;-70
2022/07/20 09:02:56;;;;;;;16.73;14.10;;;34.80;64.00;;;;;;5102819;27;20541;-70
2022/07/20 09:05:25;;;;;;;14.80;13.27;;;34.50;64.40;;;;;;5103324;28;20430;-70
2022/07/20 09:07:53;;;;;;;19.40;15.70;;;34.30;65.10;;;;;;5099585;28;20485;-69
2022/07/20 09:10:22;;;;;;;15.20;12.33;;;34.50;65.30;;;;;;5100919;27;20484;-71
2022/07/20 09:12:54;;;;;;;20.00;15.07;;;34.90;64.40;;;;;;5103763;27;20459;-71
2022/07/20 09:15:30;;;;;;;17.30;13.63;;;35.50;64.50;;;;;;5101123;27;20481;-71
2022/07/20 09:18:10;;;;;;;13.27;11.97;;;35.90;62.40;;;;;;5102461;28;20620;-72
2022/07/20 09:20:39;;;;;;;18.93;15.23;;;35.50;62.10;;;;;;5100255;27;20473;-71
2022/07/20 09:23:08;;;;;;;15.90;13.30;;;35.60;63.50;;;;;;5103904;28;20484;-70
2022/07/20 09:25:35;;;;;;;21.80;12.80;;;35.70;61.40;;;;;;5104703;27;20445;-71
2022/07/20 09:28:02;;;;;;;23.23;14.90;;;34.80;62.40;;;;;;5100213;27;20461;-71
2022/07/20 09:30:29;;;;;;;16.80;13.57;;;35.10;63.80;;;;;;5104113;27;20848;-71
2022/07/20 09:32:59;;;;;;;17.77;14.87;;;35.10;64.40;;;;;;5099646;27;20478;-71
2022/07/20 09:35:30;;;;;;;16.00;14.30;;;35.60;63.40;;;;;;5098388;28;20982;-69
2022/07/20 09:37:59;;;;;;;17.73;12.57;;;36.00;62.00;;;;;;5100000;27;20465;-70
2022/07/20 09:40:27;;;;;;;20.20;14.47;;;35.60;62.70;;;;;;5105787;27;20530;-69
2022/07/20 09:42:54;;;;;;;16.20;14.23;;;36.40;60.10;;;;;;5098959;28;20791;-70
2022/07/20 09:45:25;;;;;;;16.90;13.50;;;36.30;60.70;;;;;;5100063;27;20469;-71
2022/07/20 09:48:09;;;;;;;16.13;13.30;;;36.90;60.40;;;;;;5094594;27;20803;-70
2022/07/20 09:53:16;;;;;;;14.53;13.13;;;37.30;58.60;;;;;;5034688;28;20896;-73
2022/07/20 09:55:44;;;;;;;14.50;13.10;;;37.20;58.50;;;;;;5044967;28;20542;-73
2022/07/20 09:58:11;;;;;;;15.57;12.97;;;37.80;58.70;;;;;;5042325;28;20444;-73
2022/07/20 10:00:38;;;;;;;20.30;12.60;;;38.40;56.40;;;;;;5047506;28;20540;-73
2022/07/20 10:03:06;;;;;;;14.33;12.77;;;37.80;57.40;;;;;;5061997;28;20447;-73
2022/07/20 10:05:37;;;;;;;15.60;13.20;;;37.90;57.00;;;;;;5060837;28;20438;-73
2022/07/20 10:08:06;;;;;;;16.47;14.27;;;38.50;56.60;;;;;;5061117;28;20447;-73
2022/07/20 10:10:34;;;;;;;13.00;11.70;;;39.20;55.70;;;;;;5059452;28;20546;-72
2022/07/20 10:13:02;;;;;;;16.93;13.40;;;39.00;54.20;;;;;;5061362;28;20471;-73
2022/07/20 10:15:42;;;;;;;13.43;11.87;;;38.50;55.20;;;;;;5063835;28;20566;-73
2022/07/20 10:18:10;;;;;;;13.60;12.33;;;37.80;55.50;;;;;;5056627;28;20471;-73
2022/07/20 10:20:39;;;;;;;15.70;10.30;;;38.00;54.90;;;;;;5064685;28;20628;-73
2022/07/20 10:23:32;;;;;;;15.20;11.50;;;37.40;55.40;;;;;;5063587;28;20443;-73
2022/07/20 10:25:59;;;;;;;12.63;11.50;;;37.20;56.30;;;;;;5064677;28;20500;-73
2022/07/20 10:28:58;;;;;;;13.53;12.17;;;37.50;55.90;;;;;;5073160;28;20455;-73
2022/07/20 10:31:25;;;;;;;12.93;11.80;;;38.10;55.00;;;;;;5072825;28;20510;-73
2022/07/20 10:33:52;;;;;;;11.43;9.80;;;37.90;53.90;;;;;;5071656;28;20446;-73
2022/07/20 10:39:45;;;;;;;12.30;11.17;;;37.80;54.80;;;;;;5058156;28;20450;-73
2022/07/20 10:42:28;;;;;;;13.97;8.47;;;38.10;53.50;;;;;;5061452;28;20471;-72
2022/07/20 10:44:56;;;;;;;11.07;8.87;;;37.60;53.50;;;;;;5049796;28;20459;-73
2022/07/20 10:47:43;;;;;;;18.47;12.10;;;37.20;54.40;;;;;;5061786;28;20435;-73
2022/07/20 10:50:17;;;;;;;12.37;10.57;;;38.00;54.00;;;;;;5064356;28;20869;-73
2022/07/20 10:52:46;;;;;;;13.10;11.70;;;38.70;53.00;;;;;;5062766;28;20495;-73
2022/07/20 10:55:50;;;;;;;13.77;12.00;;;39.40;53.40;;;;;;5065262;28;20443;-73
2022/07/20 10:58:19;;;;;;;15.73;11.20;;;39.00;53.10;;;;;;5064419;28;20466;-73
2022/07/20 11:00:48;;;;;;;12.93;10.70;;;38.90;52.90;;;;;;5061563;28;20451;-73
2022/07/20 11:03:17;;;;;;;11.13;7.60;;;38.90;52.70;;;;;;5062955;28;20459;-73
2022/07/20 11:05:45;;;;;;;12.13;9.87;;;38.90;51.90;;;;;;5062115;28;20439;-73
2022/07/20 11:08:14;;;;;;;10.87;9.77;;;39.00;52.30;;;;;;5063789;28;20449;-73
2022/07/20 11:10:43;;;;;;;12.10;10.13;;;38.80;53.30;;;;;;5063265;28;20527;-74
2022/07/20 11:13:11;;;;;;;12.50;10.83;;;38.50;53.00;;;;;;5058142;28;20554;-74
2022/07/20 11:15:40;;;;;;;9.60;8.63;;;38.60;52.90;;;;;;5063599;28;20458;-73
2022/07/20 11:18:07;;;;;;;13.13;10.00;;;38.40;52.80;;;;;;5063297;28;20470;-73
2022/07/20 11:20:35;;;;;;;13.07;11.73;;;38.30;53.00;;;;;;5064202;28;20944;-73
2022/07/20 11:23:03;;;;;;;11.73;9.87;;;38.70;52.50;;;;;;5061549;28;20455;-73
2022/07/20 11:28:25;;;;;;;16.07;10.77;;;39.20;52.60;;;;;;5141697;27;20927;-72
2022/07/20 11:30:54;;;;;;;12.10;10.33;;;39.40;52.00;;;;;;5111520;27;20457;-72
2022/07/20 11:33:28;;;;;;;11.73;9.83;;;39.40;51.80;;;;;;5120758;27;20531;-72
2022/07/20 11:35:57;;;;;;;11.70;9.30;;;39.50;51.40;;;;;;5116410;27;20437;-73
2022/07/20 11:38:24;;;;;;;10.50;9.27;;;40.00;50.90;;;;;;5115647;27;20460;-73
2022/07/20 11:40:59;;;;;;;10.07;9.03;;;40.20;51.40;;;;;;5118432;27;20445;-73
2022/07/20 11:43:27;;;;;;;14.83;9.47;;;39.70;51.60;;;;;;5112060;27;20461;-73
2022/07/20 11:45:54;;;;;;;10.20;9.20;;;39.00;52.40;;;;;;5115981;27;20458;-73
2022/07/20 11:48:24;;;;;;;10.53;9.37;;;39.70;51.30;;;;;;5119026;27;20482;-73
2022/07/20 11:50:51;;;;;;;16.27;9.80;;;40.00;51.60;;;;;;5121122;27;20437;-73
2022/07/20 11:53:29;;;;;;;18.00;11.20;;;39.70;51.10;;;;;;5121467;27;20859;-73
2022/07/20 11:55:57;;;;;;;11.37;9.97;;;39.80;51.70;;;;;;5115325;27;20810;-72
2022/07/20 11:58:33;;;;;;;12.30;9.60;;;40.20;50.40;;;;;;5117637;27;20453;-73
2022/07/20 12:01:02;;;;;;;10.47;9.40;;;39.90;51.30;;;;;;5118706;27;20453;-73
2022/07/20 12:03:32;;;;;;;12.00;9.73;;;39.60;51.30;;;;;;5117671;27;20460;-73
2022/07/20 12:06:04;;;;;;;10.47;9.37;;;39.30;51.70;;;;;;5115075;27;20436;-73
2022/07/20 12:08:31;;;;;;;10.70;9.70;;;40.00;50.70;;;;;;5120117;27;20438;-73
2022/07/20 12:10:59;;;;;;;10.37;7.50;;;40.50;51.20;;;;;;5110936;27;20495;-72
2022/07/20 12:13:27;;;;;;;12.43;8.57;;;40.00;50.20;;;;;;5114860;27;20449;-73
2022/07/20 12:16:01;;;;;;;12.37;9.43;;;39.40;51.60;;;;;;5117733;27;20926;-73
2022/07/20 12:18:44;;;;;;;11.27;10.23;;;39.20;51.10;;;;;;5119136;27;20479;-73
2022/07/20 12:21:14;;;;;;;10.73;9.70;;;39.50;51.20;;;;;;5115754;27;20489;-73
2022/07/20 12:23:42;;;;;;;13.83;9.60;;;39.50;50.70;;;;;;5117765;27;20497;-73
2022/07/20 12:26:28;;;;;;;11.00;9.80;;;39.50;51.40;;;;;;5119013;27;20429;-73
2022/07/20 12:28:56;;;;;;;9.53;8.53;;;39.80;51.50;;;;;;5115416;27;20475;-74
2022/07/20 12:31:26;;;;;;;10.53;8.10;;;40.60;51.00;;;;;;5114792;27;20500;-73
2022/07/20 12:34:10;;;;;;;10.60;9.60;;;40.30;50.30;;;;;;5117175;27;20519;-72
2022/07/20 12:36:39;;;;;;;9.93;8.90;;;40.60;50.30;;;;;;5117154;27;20433;-72
2022/07/20 12:39:08;;;;;;;10.20;8.30;;;40.80;49.60;;;;;;5106597;27;20543;-72
2022/07/20 12:41:36;;;;;;;8.77;7.97;;;40.20;49.70;;;;;;5102490;27;20461;-74
2022/07/20 12:44:26;;;;;;;10.00;7.10;;;40.40;50.20;;;;;;5105035;27;20456;-74
2022/07/20 12:46:55;;;;;;;10.17;8.80;;;40.60;50.00;;;;;;5102413;28;20477;-73
2022/07/20 12:49:24;;;;;;;8.50;7.67;;;40.00;50.70;;;;;;5103215;27;20472;-73
2022/07/20 12:51:51;;;;;;;10.73;8.57;;;40.10;50.50;;;;;;5102404;27;20457;-73
2022/07/20 12:54:19;;;;;;;7.73;7.03;;;40.30;50.00;;;;;;5101521;27;20460;-73
2022/07/20 12:56:47;;;;;;;7.70;6.90;;;40.00;50.60;;;;;;5101858;28;20514;-74
2022/07/20 12:59:14;;;;;;;15.00;7.67;;;40.00;50.10;;;;;;5100115;27;20445;-73